createdAt,value
2022-12-14T00:02:12.128Z,56.99
2022-12-14T00:04:42.532Z,57.12
2022-12-14T00:07:14.626Z,57.29
2022-12-14T00:09:43.364Z,57.36
2022-12-14T00:12:11.589Z,57.34
2022-12-14T00:14:40.006Z,57.57
2022-12-14T00:17:08.490Z,57.51
2022-12-14T00:19:36.950Z,57.55
2022-12-14T00:22:05.042Z,57.55
2022-12-14T00:24:34.827Z,57.42
2022-12-14T00:27:03.108Z,57.56
2022-12-14T00:29:31.389Z,57.51
2022-12-14T00:32:02.251Z,57.53
2022-12-14T00:34:31.322Z,57.52
2022-12-14T00:37:00.099Z,57.50
2022-12-14T01:05:51.765Z,58.69
2022-12-14T01:11:37.811Z,59.02
2022-12-14T01:23:50.015Z,58.43
2022-12-14T01:26:23.005Z,58.32
2022-12-14T01:38:22.141Z,57.65
2022-12-14T01:40:51.352Z,57.87
2022-12-14T01:43:30.784Z,57.85
2022-12-14T01:46:09.960Z,57.85
2022-12-14T01:48:57.799Z,57.87
2022-12-14T05:42:14.812Z,58.13
2022-12-14T05:44:43.620Z,57.96
2022-12-14T05:47:11.985Z,57.88
2022-12-14T05:49:40.569Z,58.05
2022-12-14T05:52:09.078Z,58.23
2022-12-14T05:54:37.220Z,58.32
2022-12-14T05:57:06.886Z,58.33
2022-12-14T05:59:36.626Z,58.35
2022-12-14T06:02:05.236Z,58.35
2022-12-14T06:04:34.154Z,58.32
2022-12-14T06:07:02.593Z,58.25
2022-12-14T06:09:30.776Z,58.15
2022-12-14T06:11:59.186Z,58.09
2022-12-14T06:14:27.395Z,58.04
2022-12-14T06:16:56.986Z,58.38
2022-12-14T06:19:25.482Z,58.75
2022-12-14T06:21:53.784Z,58.66
2022-12-14T06:24:22.144Z,58.48
2022-12-14T06:26:50.686Z,58.51
2022-12-14T06:29:20.346Z,58.54
2022-12-14T06:31:49.124Z,59.04
2022-12-14T06:34:22.341Z,59.43
2022-12-14T06:36:51.667Z,59.51
2022-12-14T06:39:20.027Z,59.85
2022-12-14T06:41:50.802Z,59.59
2022-12-14T06:44:19.038Z,59.43
2022-12-14T06:46:47.875Z,59.33
2022-12-14T06:49:17.214Z,59.12
2022-12-14T06:51:46.766Z,59.17
2022-12-14T06:54:16.562Z,59.12
2022-12-14T06:56:46.432Z,59.14
2022-12-14T06:59:18.348Z,59.09
2022-12-14T07:01:49.708Z,58.88
2022-12-14T07:04:21.424Z,58.82
2022-12-14T07:06:51.290Z,58.81
2022-12-14T07:09:19.679Z,59.10
2022-12-14T07:11:50.970Z,59.37
2022-12-14T07:14:19.399Z,59.18
2022-12-14T07:16:49.086Z,59.17
2022-12-14T07:19:18.946Z,59.24
2022-12-14T07:21:51.080Z,59.13
2022-12-14T07:24:22.220Z,59.30
2022-12-14T07:26:54.034Z,59.37
2022-12-14T07:29:31.099Z,59.32
2022-12-14T07:32:05.838Z,59.16
2022-12-14T07:34:34.537Z,58.97
2022-12-14T07:37:11.731Z,58.85
2022-12-14T07:39:40.108Z,59.02
2022-12-14T07:42:10.287Z,59.21
2022-12-14T07:44:41.992Z,59.10
2022-12-14T07:47:16.549Z,58.93
2022-12-14T07:49:48.573Z,58.83
2022-12-14T07:52:24.776Z,58.68
2022-12-14T07:54:53.362Z,58.65
2022-12-14T07:57:25.353Z,58.64
2022-12-14T07:59:57.460Z,58.57
2022-12-14T08:02:30.787Z,58.57
2022-12-14T08:04:59.980Z,58.40
2022-12-14T08:07:31.628Z,58.20
2022-12-14T08:10:06.851Z,58.08
2022-12-14T08:12:36.293Z,58.17
2022-12-14T08:15:08.847Z,58.20
2022-12-14T08:17:40.305Z,58.21
2022-12-14T08:20:12.802Z,58.27
2022-12-14T08:22:42.267Z,58.18
2022-12-14T08:25:11.149Z,58.08
2022-12-14T08:27:39.421Z,57.96
2022-12-14T08:30:09.136Z,57.78
2022-12-14T08:32:37.890Z,57.77
2022-12-14T08:35:07.050Z,57.84
2022-12-14T08:37:35.552Z,57.89
2022-12-14T08:40:07.090Z,57.92
2022-12-14T08:42:35.475Z,57.89
2022-12-14T08:45:06.048Z,57.86
2022-12-14T08:47:34.422Z,57.94
2022-12-14T08:50:02.762Z,57.93
2022-12-14T08:52:31.244Z,57.88
2022-12-14T08:55:00.040Z,58.16
2022-12-14T08:57:32.394Z,58.34
2022-12-14T09:00:02.329Z,58.18
2022-12-14T09:02:31.296Z,57.51
2022-12-14T09:04:59.543Z,57.57
2022-12-14T09:07:29.049Z,57.44
2022-12-14T09:09:57.520Z,57.23
2022-12-14T09:12:26.426Z,57.08
2022-12-14T09:14:56.536Z,57.09
2022-12-14T09:17:28.106Z,57.18
2022-12-14T09:19:59.914Z,57.45
2022-12-14T09:22:28.609Z,57.48
2022-12-14T09:24:57.063Z,57.61
2022-12-14T09:27:25.653Z,57.57
2022-12-14T09:29:53.939Z,57.57
2022-12-14T09:32:23.820Z,57.81
2022-12-14T09:34:52.918Z,57.63
2022-12-14T09:37:21.365Z,57.31
2022-12-14T09:39:49.932Z,57.26
2022-12-14T09:42:33.615Z,57.36
2022-12-14T09:45:08.166Z,57.13
2022-12-14T09:47:47.299Z,56.44
2022-12-14T09:50:23.470Z,56.26
2022-12-14T09:52:54.389Z,56.35
2022-12-14T09:55:27.081Z,56.02
2022-12-14T09:57:59.251Z,56.27
2022-12-14T10:00:35.309Z,56.38
2022-12-14T10:03:31.540Z,56.52
2022-12-14T10:06:21.321Z,56.40
2022-12-14T10:08:54.986Z,56.91
2022-12-14T10:11:32.774Z,56.52
2022-12-14T10:14:10.999Z,56.97
2022-12-14T10:16:51.835Z,56.90
2022-12-14T10:19:35.066Z,56.86
2022-12-14T10:22:07.557Z,57.06
2022-12-14T10:24:38.937Z,57.01
2022-12-14T10:27:09.696Z,57.04
2022-12-14T10:29:42.658Z,57.36
2022-12-14T10:32:21.212Z,56.83
2022-12-14T10:34:52.090Z,57.03
2022-12-14T10:37:37.734Z,56.93
2022-12-14T10:40:33.067Z,57.11
2022-12-14T10:43:21.358Z,56.81
2022-12-14T10:45:57.600Z,57.35
2022-12-14T10:48:49.289Z,56.96
2022-12-14T10:51:21.494Z,57.15
2022-12-14T10:53:59.498Z,56.86
2022-12-14T10:56:44.719Z,56.93
2022-12-14T10:59:26.366Z,57.24
2022-12-14T11:01:58.682Z,57.17
2022-12-14T11:04:34.466Z,56.79
2022-12-14T11:07:06.779Z,56.69
2022-12-14T11:09:35.502Z,56.75
2022-12-14T11:12:08.449Z,56.63
2022-12-14T11:14:59.810Z,56.79
2022-12-14T11:17:38.248Z,56.59
2022-12-14T11:20:17.800Z,56.55
2022-12-14T11:22:49.134Z,56.55
2022-12-14T11:25:32.673Z,56.49
2022-12-14T11:28:04.497Z,56.57
2022-12-14T11:30:33.235Z,56.33
2022-12-14T11:33:01.772Z,56.14
2022-12-14T11:35:30.110Z,56.04
2022-12-14T11:38:02.154Z,56.02
2022-12-14T11:40:30.549Z,56.06
2022-12-14T11:43:05.077Z,56.36
2022-12-14T11:45:37.372Z,56.17
2022-12-14T11:48:21.981Z,56.41
2022-12-14T11:50:51.532Z,55.65
2022-12-14T11:53:23.163Z,56.33
2022-12-14T11:55:57.951Z,56.43
2022-12-14T11:58:29.953Z,55.97
2022-12-14T12:01:01.892Z,56.05
2022-12-14T12:03:35.170Z,56.40
2022-12-14T12:06:07.211Z,56.21
2022-12-14T12:08:39.290Z,55.79
2022-12-14T12:11:17.249Z,55.80
2022-12-14T12:13:48.681Z,55.48
2022-12-14T12:16:20.263Z,55.71
2022-12-14T12:18:52.621Z,55.51
2022-12-14T12:21:25.845Z,55.60
2022-12-14T12:24:00.846Z,55.49
2022-12-14T12:26:32.824Z,55.56
2022-12-14T12:29:04.049Z,55.65
2022-12-14T12:31:35.906Z,56.06
2022-12-14T12:34:12.030Z,56.02
2022-12-14T12:36:51.718Z,55.89
2022-12-14T12:39:36.777Z,55.76
2022-12-14T12:42:17.847Z,55.87
2022-12-14T12:44:53.282Z,55.81
2022-12-14T12:47:41.435Z,55.08
2022-12-14T12:50:17.311Z,55.24
2022-12-14T12:53:00.846Z,55.86
2022-12-14T12:55:35.660Z,55.45
2022-12-14T12:58:12.550Z,56.03
2022-12-14T13:00:48.577Z,55.66
2022-12-14T13:03:26.399Z,55.43
2022-12-14T13:05:58.579Z,55.61
2022-12-14T13:08:32.514Z,56.03
2022-12-14T13:13:59.996Z,56.14
2022-12-14T13:16:33.496Z,56.16
2022-12-14T13:19:41.045Z,56.28
2022-12-14T13:22:06.455Z,56.44
2022-12-14T13:24:35.648Z,56.33
2022-12-14T13:27:20.113Z,56.38
2022-12-14T13:30:06.193Z,56.07
2022-12-14T13:32:50.151Z,56.04
2022-12-14T13:35:34.896Z,56.40
2022-12-14T13:38:21.184Z,56.31
2022-12-14T13:41:31.764Z,56.30
2022-12-14T13:44:19.263Z,55.90
2022-12-14T13:46:57.340Z,55.99
2022-12-14T13:49:26.325Z,56.31
2022-12-14T13:51:55.319Z,56.30
2022-12-14T13:54:28.051Z,56.07
2022-12-14T13:57:06.434Z,56.06
2022-12-14T13:59:39.857Z,56.20
2022-12-14T14:02:41.623Z,56.32
2022-12-14T14:05:46.128Z,56.19
2022-12-14T14:08:41.365Z,56.03
2022-12-14T14:11:55.211Z,56.53
2022-12-14T14:14:47.552Z,55.95
2022-12-14T14:17:21.465Z,56.29
2022-12-14T14:19:51.855Z,56.40
2022-12-14T14:22:24.283Z,56.29
2022-12-14T14:25:01.600Z,56.47
2022-12-14T14:27:37.740Z,56.20
2022-12-14T14:30:25.740Z,56.33
2022-12-14T14:33:03.016Z,56.37
2022-12-14T14:35:41.867Z,56.48
2022-12-14T14:38:25.989Z,56.37
2022-12-14T14:43:51.568Z,56.57
2022-12-14T14:46:23.527Z,56.52
2022-12-14T14:48:54.950Z,56.45
2022-12-14T14:51:26.586Z,56.56
2022-12-14T14:57:36.187Z,56.90
2022-12-14T15:00:13.473Z,56.76
2022-12-14T15:02:43.974Z,56.83
2022-12-14T15:08:17.758Z,56.83
2022-12-14T15:10:47.674Z,56.46
2022-12-14T15:13:21.797Z,56.60
2022-12-14T15:15:53.120Z,56.65
2022-12-14T15:18:25.458Z,56.57
2022-12-14T15:20:58.316Z,56.58
2022-12-14T15:23:36.597Z,56.66
2022-12-14T15:26:16.959Z,56.68
2022-12-14T15:28:49.669Z,56.91
2022-12-14T15:31:19.606Z,57.13
2022-12-14T15:33:49.141Z,57.12
2022-12-14T15:36:20.603Z,57.17
2022-12-14T15:38:53.704Z,57.27
2022-12-14T15:41:24.849Z,57.63
2022-12-14T15:43:58.131Z,57.85
2022-12-14T15:46:30.861Z,57.93
2022-12-14T15:49:03.530Z,58.03
2022-12-14T15:51:34.169Z,58.04
2022-12-14T15:54:04.281Z,57.95
2022-12-14T15:56:35.431Z,58.07
2022-12-14T15:59:10.079Z,58.03
2022-12-14T16:01:50.013Z,58.00
2022-12-14T16:04:25.828Z,58.04
2022-12-14T16:07:04.519Z,57.96
2022-12-14T16:09:42.655Z,57.98
2022-12-14T16:12:18.310Z,58.09
2022-12-14T16:14:54.069Z,58.21
2022-12-14T16:17:26.166Z,58.28
2022-12-14T16:19:59.865Z,58.14
2022-12-14T16:22:33.140Z,58.17
2022-12-14T16:25:21.112Z,58.21
2022-12-14T16:27:51.896Z,58.26
2022-12-14T16:30:28.442Z,58.46
2022-12-14T16:33:08.468Z,58.62
2022-12-14T16:35:39.503Z,58.73
2022-12-14T16:38:10.043Z,58.85
2022-12-14T16:40:40.638Z,58.90
2022-12-14T16:43:27.234Z,58.89
2022-12-14T16:46:09.779Z,58.73
2022-12-14T16:48:44.539Z,58.37
2022-12-14T16:51:58.325Z,58.16
2022-12-14T16:54:25.058Z,58.13
2022-12-14T16:56:58.251Z,58.11
2022-12-14T16:59:29.820Z,58.07
2022-12-14T17:01:58.666Z,58.11
2022-12-14T17:04:34.656Z,58.03
2022-12-14T17:07:07.935Z,58.03
2022-12-14T17:09:36.713Z,58.03
2022-12-14T17:12:14.023Z,57.99
2022-12-14T17:14:49.465Z,58.03
2022-12-14T17:17:22.029Z,58.12
2022-12-14T17:19:50.328Z,58.23
2022-12-14T17:22:26.447Z,58.23
2022-12-14T17:24:55.494Z,58.17
2022-12-14T17:27:26.676Z,58.19
2022-12-14T17:29:57.110Z,58.14
2022-12-14T17:32:29.556Z,58.22
2022-12-14T17:34:58.049Z,58.15
2022-12-14T17:37:34.086Z,58.22
2022-12-14T17:40:06.357Z,58.26
2022-12-14T17:42:35.552Z,58.41
2022-12-14T17:45:03.946Z,58.43
2022-12-14T17:47:32.165Z,58.50
2022-12-14T17:50:00.655Z,58.77
2022-12-14T17:52:33.562Z,58.92
2022-12-14T17:55:02.149Z,58.95
2022-12-14T17:57:30.273Z,59.09
2022-12-14T18:00:12.355Z,59.17
2022-12-14T18:02:42.025Z,59.42
2022-12-14T18:05:18.253Z,59.26
2022-12-14T18:07:49.769Z,59.13
2022-12-14T18:10:19.467Z,58.94
2022-12-14T18:12:49.630Z,58.70
2022-12-14T18:15:20.790Z,58.56
2022-12-14T18:17:49.696Z,58.69
2022-12-14T18:20:18.875Z,58.59
2022-12-14T18:22:50.025Z,58.49
2022-12-14T18:25:40.113Z,58.38
2022-12-14T18:28:10.218Z,58.15
2022-12-14T18:30:47.557Z,58.12
2022-12-14T18:33:19.154Z,58.05
2022-12-14T18:35:48.787Z,58.08
2022-12-14T18:38:21.605Z,57.93
2022-12-14T19:44:01.996Z,57.37
2022-12-14T19:46:31.012Z,57.75
2022-12-14T19:48:59.921Z,56.92
2022-12-14T19:51:28.315Z,57.35
2022-12-14T19:53:57.031Z,57.43
2022-12-14T19:56:25.308Z,57.67
2022-12-14T19:58:57.786Z,57.62
2022-12-14T20:01:32.490Z,57.10
2022-12-14T20:04:01.571Z,56.93
2022-12-14T20:06:30.209Z,57.42
2022-12-14T20:09:03.902Z,57.34
2022-12-14T20:11:32.392Z,57.06
2022-12-14T20:14:03.299Z,56.96
2022-12-14T20:16:33.620Z,56.73
2022-12-14T20:19:02.817Z,56.86
2022-12-14T20:21:30.938Z,57.40
2022-12-14T20:23:59.920Z,57.23
2022-12-14T20:26:29.460Z,56.59
2022-12-14T20:29:00.984Z,56.36
2022-12-14T20:31:29.565Z,56.38
2022-12-14T20:34:00.230Z,56.66
2022-12-14T20:36:28.787Z,56.56
2022-12-14T20:38:58.693Z,56.51
2022-12-14T20:41:26.979Z,56.61
2022-12-14T20:43:57.263Z,56.61
2022-12-14T20:46:28.803Z,56.64
2022-12-14T20:48:57.990Z,56.65
2022-12-14T20:51:29.431Z,56.75
2022-12-14T20:53:58.130Z,57.18
2022-12-14T20:56:27.506Z,57.00
2022-12-14T20:58:56.029Z,57.61
2022-12-14T21:01:28.058Z,57.84
2022-12-14T21:03:57.738Z,57.71
2022-12-14T21:06:28.239Z,56.88
2022-12-14T21:09:05.327Z,56.94
2022-12-14T21:11:52.477Z,56.21
2022-12-14T21:14:22.455Z,56.45
2022-12-14T21:16:52.221Z,56.35
2022-12-14T21:19:21.893Z,56.39
2022-12-14T21:21:54.151Z,56.40
2022-12-14T21:25:00.551Z,56.95
2022-12-14T21:27:16.803Z,57.13
2022-12-14T21:29:45.377Z,57.67
2022-12-14T21:32:14.428Z,57.49
2022-12-14T21:34:43.426Z,57.54
2022-12-14T21:37:14.218Z,57.59
2022-12-14T23:44:04.395Z,58.70
2022-12-14T23:46:53.393Z,58.62
2022-12-14T23:49:40.016Z,58.48
2022-12-14T23:52:26.123Z,58.47
2022-12-14T23:55:12.032Z,58.64
2022-12-14T23:57:58.808Z,58.65
